createdAt,value
2017-09-11T00:00:40.049Z,1020.51
2017-09-11T00:01:40.689Z,1020.51
2017-09-11T00:02:41.478Z,1020.51
2017-09-11T00:03:42.111Z,1020.51
2017-09-11T00:04:42.750Z,1020.50
2017-09-11T00:05:43.538Z,1020.53
2017-09-11T00:06:44.174Z,1020.46
2017-09-11T00:07:44.810Z,1020.48
2017-09-11T00:08:45.448Z,1020.46
2017-09-11T00:09:46.283Z,1020.44
2017-09-11T00:10:46.919Z,1020.48
2017-09-11T00:11:47.557Z,1020.50
2017-09-11T00:12:48.191Z,1020.50
2017-09-11T00:13:48.831Z,1020.54
2017-09-11T00:14:49.517Z,1020.52
2017-09-11T00:15:50.153Z,1020.50
2017-09-11T00:16:50.792Z,1020.59
2017-09-11T00:17:51.877Z,1020.52
2017-09-11T00:18:52.514Z,1020.56
2017-09-11T00:19:53.147Z,1020.59
2017-09-11T00:20:53.788Z,1020.59
2017-09-11T00:21:54.421Z,1020.62
2017-09-11T00:22:55.057Z,1020.52
2017-09-11T00:23:55.693Z,1020.63
2017-09-11T00:24:56.332Z,1020.64
2017-09-11T00:25:57.169Z,1020.61
2017-09-11T00:26:57.804Z,1020.62
2017-09-11T00:27:58.496Z,1020.59
2017-09-11T00:28:59.181Z,1020.56
2017-09-11T00:29:59.820Z,1020.59
2017-09-11T00:31:00.458Z,1020.54
2017-09-11T00:32:01.093Z,1020.58
2017-09-11T00:33:01.733Z,1020.61
2017-09-11T00:34:02.515Z,1020.56
2017-09-11T00:35:03.150Z,1020.55
2017-09-11T00:36:03.789Z,1020.55
2017-09-11T00:37:04.424Z,1020.52
2017-09-11T00:38:05.062Z,1020.51
2017-09-11T00:39:05.696Z,1020.52
2017-09-11T00:40:06.335Z,1020.49
2017-09-11T00:41:06.968Z,1020.49
2017-09-11T00:42:07.658Z,1020.52
2017-09-11T00:43:08.495Z,1020.47
2017-09-11T00:44:09.133Z,1020.48
2017-09-11T00:45:09.767Z,1020.44
2017-09-11T00:46:10.403Z,1020.50
2017-09-11T00:47:11.038Z,1020.59
2017-09-11T00:48:11.676Z,1020.50
2017-09-11T00:49:12.312Z,1020.50
2017-09-11T00:50:12.948Z,1020.48
2017-09-11T00:51:13.783Z,1020.46
2017-09-11T00:52:14.422Z,1020.45
2017-09-11T00:53:15.061Z,1020.50
2017-09-11T00:54:15.696Z,1020.47
2017-09-11T00:55:16.333Z,1020.53
2017-09-11T00:56:16.970Z,1020.39
2017-09-11T00:57:17.604Z,1020.48
2017-09-11T00:58:18.238Z,1020.45
2017-09-11T00:59:19.075Z,1020.45
2017-09-11T01:00:19.715Z,1020.45
2017-09-11T01:01:20.351Z,1020.45
2017-09-11T01:02:20.988Z,1020.41
2017-09-11T01:03:21.623Z,1020.39
2017-09-11T01:04:22.260Z,1020.38
2017-09-11T01:05:22.900Z,1020.40
2017-09-11T01:06:23.534Z,1020.35
2017-09-11T01:07:24.368Z,1020.38
2017-09-11T01:08:25.005Z,1020.34
2017-09-11T01:09:25.646Z,1020.32
2017-09-11T01:10:26.282Z,1020.31
2017-09-11T01:11:28.720Z,1020.31
2017-09-11T01:12:29.357Z,1020.36
2017-09-11T01:13:30.042Z,1020.29
2017-09-11T01:14:30.678Z,1020.35
2017-09-11T01:15:31.318Z,1020.28
2017-09-11T01:16:32.155Z,1020.24
2017-09-11T01:17:32.789Z,1020.24
2017-09-11T01:18:33.426Z,1020.24
2017-09-11T01:19:34.061Z,1020.21
2017-09-11T01:20:34.697Z,1020.22
2017-09-11T01:21:35.334Z,1020.25
2017-09-11T01:22:35.970Z,1020.30
2017-09-11T01:23:36.606Z,1020.24
2017-09-11T01:24:37.441Z,1020.20
2017-09-11T01:25:38.078Z,1020.21
2017-09-11T01:26:38.717Z,1020.18
2017-09-11T01:27:39.350Z,1020.11
2017-09-11T01:28:39.988Z,1020.11
2017-09-11T01:29:40.628Z,1020.12
2017-09-11T01:30:41.262Z,1020.11
2017-09-11T01:31:41.898Z,1020.05
2017-09-11T01:32:42.683Z,1020.05
2017-09-11T01:33:43.319Z,1020.10
2017-09-11T01:34:43.955Z,1020.10
2017-09-11T01:35:44.596Z,1020.03
2017-09-11T01:36:45.233Z,1019.99
2017-09-11T01:37:45.868Z,1020.01
2017-09-11T01:38:46.505Z,1020.07
2017-09-11T01:39:47.157Z,1020.00
2017-09-11T01:40:48.078Z,1020.02
2017-09-11T01:41:48.714Z,1020.02
2017-09-11T01:42:49.349Z,1020.00
2017-09-11T01:43:49.987Z,1020.08
2017-09-11T01:44:50.621Z,1020.01
2017-09-11T01:45:51.255Z,1019.97
2017-09-11T01:46:51.892Z,1019.97
2017-09-11T01:47:52.532Z,1019.93
2017-09-11T01:48:53.365Z,1019.99
2017-09-11T01:49:54.001Z,1019.95
2017-09-11T01:50:54.641Z,1019.94
2017-09-11T01:51:55.275Z,1019.90
2017-09-11T01:52:55.914Z,1019.90
2017-09-11T01:53:56.549Z,1019.94
2017-09-11T01:54:57.186Z,1019.96
2017-09-11T01:55:57.820Z,1019.95
2017-09-11T01:56:58.457Z,1019.92
2017-09-11T01:57:59.292Z,1019.97
2017-09-11T01:58:59.927Z,1019.87
2017-09-11T02:00:00.571Z,1019.96
2017-09-11T02:01:01.201Z,1019.87
2017-09-11T02:02:01.840Z,1019.90
2017-09-11T02:03:02.475Z,1019.90
2017-09-11T02:04:03.110Z,1019.85
2017-09-11T02:05:03.747Z,1019.92
2017-09-11T02:06:04.533Z,1019.92
2017-09-11T02:07:05.169Z,1019.89
2017-09-11T02:08:05.807Z,1019.89
2017-09-11T02:09:06.444Z,1019.87
2017-09-11T02:10:07.079Z,1019.92
2017-09-11T02:11:07.718Z,1019.90
2017-09-11T02:12:08.355Z,1019.83
2017-09-11T02:13:08.989Z,1019.85
2017-09-11T02:14:09.834Z,1019.77
2017-09-11T02:15:10.470Z,1019.82
2017-09-11T02:16:11.101Z,1019.76
2017-09-11T02:17:11.685Z,1019.79
2017-09-11T02:18:12.323Z,1019.81
2017-09-11T02:19:12.960Z,1019.77
2017-09-11T02:20:13.596Z,1019.75
2017-09-11T02:21:14.234Z,1019.76
2017-09-11T02:22:15.072Z,1019.75
2017-09-11T02:23:15.707Z,1019.80
2017-09-11T02:24:16.344Z,1019.73
2017-09-11T02:25:16.982Z,1019.73
2017-09-11T02:26:17.621Z,1019.73
2017-09-11T02:27:18.254Z,1019.75
2017-09-11T02:28:18.889Z,1019.78
2017-09-11T02:29:19.525Z,1019.81
2017-09-11T02:30:20.163Z,1019.80
2017-09-11T02:31:21.103Z,1019.75
2017-09-11T02:32:21.736Z,1019.74
2017-09-11T02:33:22.374Z,1019.80
2017-09-11T02:34:23.062Z,1019.76
2017-09-11T02:35:23.749Z,1019.70
2017-09-11T02:36:24.385Z,1019.79
2017-09-11T02:37:25.019Z,1019.78
2017-09-11T02:38:25.655Z,1019.84
2017-09-11T02:39:26.493Z,1019.78
2017-09-11T02:40:27.130Z,1019.80
2017-09-11T02:41:27.768Z,1019.89
2017-09-11T02:42:28.403Z,1019.84
2017-09-11T02:43:29.092Z,1019.86
2017-09-11T02:44:29.732Z,1019.84
2017-09-11T02:45:30.365Z,1019.79
2017-09-11T02:46:31.008Z,1019.82
2017-09-11T02:47:31.905Z,1019.75
2017-09-11T02:48:32.531Z,1019.80
2017-09-11T02:49:33.166Z,1019.77
2017-09-11T02:50:33.802Z,1019.79
2017-09-11T02:51:34.437Z,1019.79
2017-09-11T02:52:35.077Z,1019.83
2017-09-11T02:53:35.712Z,1019.76
2017-09-11T02:54:36.348Z,1019.90
2017-09-11T02:55:37.188Z,1019.76
2017-09-11T02:56:37.824Z,1019.83
2017-09-11T02:57:38.508Z,1019.74
2017-09-11T02:58:39.147Z,1019.79
2017-09-11T02:59:39.782Z,1019.88
2017-09-11T03:00:40.421Z,1019.85
2017-09-11T03:01:41.058Z,1019.79
2017-09-11T03:02:41.694Z,1019.75
2017-09-11T03:03:42.478Z,1019.78
2017-09-11T03:04:43.116Z,1019.78
2017-09-11T03:05:43.752Z,1019.72
2017-09-11T03:06:44.389Z,1019.72
2017-09-11T03:07:45.024Z,1019.77
2017-09-11T03:08:45.662Z,1019.74
2017-09-11T03:09:46.297Z,1019.80
2017-09-11T03:10:46.936Z,1019.78
2017-09-11T03:11:47.572Z,1019.78
2017-09-11T03:12:48.406Z,1019.75
2017-09-11T03:13:49.044Z,1019.76
2017-09-11T03:14:49.681Z,1019.72
2017-09-11T03:15:50.314Z,1019.68
2017-09-11T03:16:50.900Z,1019.70
2017-09-11T03:17:51.534Z,1019.68
2017-09-11T03:18:52.169Z,1019.73
2017-09-11T03:19:52.803Z,1019.79
2017-09-11T03:20:53.692Z,1019.74
2017-09-11T03:21:54.329Z,1019.76
2017-09-11T03:22:54.965Z,1019.75
2017-09-11T03:23:55.599Z,1019.81
2017-09-11T03:24:56.239Z,1019.75
2017-09-11T03:25:56.876Z,1019.77
2017-09-11T03:26:57.512Z,1019.69
2017-09-11T03:27:58.145Z,1019.75
2017-09-11T03:28:59.087Z,1019.75
2017-09-11T03:29:59.772Z,1019.63
2017-09-11T03:31:00.406Z,1019.73
2017-09-11T03:32:01.045Z,1019.70
2017-09-11T03:33:01.680Z,1019.80
2017-09-11T03:34:02.317Z,1019.75
2017-09-11T03:35:02.952Z,1019.69
2017-09-11T03:36:03.590Z,1019.78
2017-09-11T03:37:04.423Z,1019.80
2017-09-11T03:38:05.060Z,1019.80
2017-09-11T03:39:05.695Z,1019.73
2017-09-11T03:40:06.332Z,1019.74
2017-09-11T03:41:06.974Z,1019.71
2017-09-11T03:42:07.661Z,1019.69
2017-09-11T03:43:08.295Z,1019.78
2017-09-11T03:44:08.931Z,1019.77
2017-09-11T03:45:09.570Z,1019.80
2017-09-11T03:46:10.405Z,1019.73
2017-09-11T03:47:11.044Z,1019.80
2017-09-11T03:48:11.677Z,1019.79
2017-09-11T03:49:12.315Z,1019.79
2017-09-11T03:50:12.951Z,1019.78
2017-09-11T03:51:13.589Z,1019.82
2017-09-11T03:52:14.224Z,1019.73
2017-09-11T03:53:14.861Z,1019.76
2017-09-11T03:54:15.694Z,1019.73
2017-09-11T03:55:16.333Z,1019.73
2017-09-11T03:56:16.970Z,1019.77
2017-09-11T03:57:17.604Z,1019.72
2017-09-11T03:58:18.239Z,1019.77
2017-09-11T03:59:18.884Z,1019.74
2017-09-11T04:00:19.514Z,1019.72
2017-09-11T04:01:20.148Z,1019.72
2017-09-11T04:02:20.947Z,1019.70
2017-09-11T04:03:21.569Z,1019.78
2017-09-11T04:04:22.205Z,1019.69
2017-09-11T04:05:22.842Z,1019.67
2017-09-11T04:06:23.480Z,1019.70
2017-09-11T04:07:24.117Z,1019.71
2017-09-11T04:08:24.751Z,1019.71
2017-09-11T04:09:25.389Z,1019.66
2017-09-11T04:10:26.227Z,1019.65
2017-09-11T04:11:26.912Z,1019.71
2017-09-11T04:12:27.548Z,1019.69
2017-09-11T04:13:28.185Z,1019.65
2017-09-11T04:14:28.819Z,1019.66
2017-09-11T04:15:29.456Z,1019.71
2017-09-11T04:16:30.097Z,1019.65
2017-09-11T04:17:30.730Z,1019.60
2017-09-11T04:18:31.518Z,1019.56
2017-09-11T04:19:32.156Z,1019.59
2017-09-11T04:20:32.792Z,1019.55
2017-09-11T04:21:33.427Z,1019.58
2017-09-11T04:22:34.064Z,1019.61
2017-09-11T04:23:34.698Z,1019.53
2017-09-11T04:24:35.336Z,1019.53
2017-09-11T04:25:35.971Z,1019.56
2017-09-11T04:26:36.607Z,1019.51
2017-09-11T04:27:37.443Z,1019.56
2017-09-11T04:28:38.078Z,1019.50
2017-09-11T04:29:38.716Z,1019.53
2017-09-11T04:30:39.353Z,1019.54
2017-09-11T04:31:39.991Z,1019.42
2017-09-11T04:32:40.625Z,1019.42
2017-09-11T04:33:41.260Z,1019.44
2017-09-11T04:34:41.897Z,1019.42
2017-09-11T04:35:42.785Z,1019.42
2017-09-11T04:36:43.420Z,1019.36
2017-09-11T04:37:44.054Z,1019.34
2017-09-11T04:38:44.694Z,1019.37
2017-09-11T04:39:45.328Z,1019.36
2017-09-11T04:40:45.964Z,1019.29
2017-09-11T04:41:46.598Z,1019.35
2017-09-11T04:42:47.236Z,1019.35
2017-09-11T04:43:48.019Z,1019.42
2017-09-11T04:44:48.656Z,1019.35
2017-09-11T04:45:49.292Z,1019.37
2017-09-11T04:46:49.929Z,1019.34
2017-09-11T04:47:50.564Z,1019.30
2017-09-11T04:48:51.202Z,1019.34
2017-09-11T04:49:51.836Z,1019.28
2017-09-11T04:50:52.473Z,1019.35
2017-09-11T04:51:53.410Z,1019.26
2017-09-11T04:52:54.044Z,1019.34
2017-09-11T04:53:54.680Z,1019.34
2017-09-11T04:54:55.315Z,1019.31
2017-09-11T04:55:55.950Z,1019.33
2017-09-11T04:56:56.586Z,1019.33
2017-09-11T04:57:57.220Z,1019.29
2017-09-11T04:58:57.858Z,1019.29
2017-09-11T04:59:58.494Z,1019.30
2017-09-11T05:00:59.332Z,1019.31
2017-09-11T05:01:59.968Z,1019.29
2017-09-11T05:03:00.606Z,1019.27
2017-09-11T05:04:01.242Z,1019.39
2017-09-11T05:05:01.878Z,1019.29
2017-09-11T05:06:02.513Z,1019.27
2017-09-11T05:07:03.150Z,1019.38
2017-09-11T05:08:03.785Z,1019.34
2017-09-11T05:09:04.571Z,1019.34
2017-09-11T05:10:05.211Z,1019.41
2017-09-11T05:11:05.849Z,1019.29
2017-09-11T05:12:06.480Z,1019.35
2017-09-11T05:13:07.118Z,1019.41
2017-09-11T05:14:07.757Z,1019.35
2017-09-11T05:15:08.391Z,1019.36
2017-09-11T05:16:09.026Z,1019.38
2017-09-11T05:17:09.860Z,1019.46
2017-09-11T05:18:10.495Z,1019.48
2017-09-11T05:19:11.134Z,1019.43
2017-09-11T05:20:11.769Z,1019.52
2017-09-11T05:21:12.408Z,1019.47
2017-09-11T05:22:13.045Z,1019.48
2017-09-11T05:23:13.680Z,1019.53
2017-09-11T05:24:14.314Z,1019.50
2017-09-11T05:25:15.152Z,1019.59
2017-09-11T05:26:15.793Z,1019.55
2017-09-11T05:27:16.429Z,1019.48
2017-09-11T05:28:17.067Z,1019.52
2017-09-11T05:29:17.706Z,1019.55
2017-09-11T05:30:18.343Z,1019.49
2017-09-11T05:31:18.978Z,1019.54
2017-09-11T05:32:19.616Z,1019.59
2017-09-11T05:33:20.508Z,1019.59
2017-09-11T05:34:21.193Z,1019.56
2017-09-11T05:35:21.827Z,1019.60
2017-09-11T05:36:22.462Z,1019.61
2017-09-11T05:37:23.098Z,1019.66
2017-09-11T05:38:23.736Z,1019.62
2017-09-11T05:39:24.374Z,1019.66
2017-09-11T05:40:25.008Z,1019.59
2017-09-11T05:41:25.645Z,1019.64
2017-09-11T05:42:26.535Z,1019.60
2017-09-11T05:43:27.171Z,1019.61
2017-09-11T05:44:27.805Z,1019.57
2017-09-11T05:45:28.447Z,1019.56
2017-09-11T05:46:29.083Z,1019.60
2017-09-11T05:47:29.717Z,1019.56
2017-09-11T05:48:30.352Z,1019.55
2017-09-11T05:49:30.990Z,1019.60
2017-09-11T05:50:31.878Z,1019.52
2017-09-11T05:51:32.515Z,1019.53
2017-09-11T05:52:33.146Z,1019.62
2017-09-11T05:53:33.782Z,1019.63
2017-09-11T05:54:34.421Z,1019.60
2017-09-11T05:55:35.055Z,1019.66
2017-09-11T05:56:35.694Z,1019.68
2017-09-11T05:57:36.332Z,1019.69
2017-09-11T05:58:37.117Z,1019.70
2017-09-11T05:59:37.751Z,1019.68
2017-09-11T06:00:38.386Z,1019.67
2017-09-11T06:01:39.022Z,1019.62
2017-09-11T06:02:39.657Z,1019.70
2017-09-11T06:03:40.296Z,1019.70
2017-09-11T06:04:40.933Z,1019.65
2017-09-11T06:05:41.565Z,1019.68
2017-09-11T06:06:42.403Z,1019.64
2017-09-11T06:07:43.039Z,1019.72
2017-09-11T06:08:43.673Z,1019.76
2017-09-11T06:09:44.308Z,1019.74
2017-09-11T06:10:44.946Z,1019.71
2017-09-11T06:11:45.580Z,1019.74
2017-09-11T06:12:46.219Z,1019.72
2017-09-11T06:13:46.852Z,1019.63
2017-09-11T06:14:47.491Z,1019.77
2017-09-11T06:15:48.276Z,1019.74
2017-09-11T06:16:48.914Z,1019.63
2017-09-11T06:17:49.549Z,1019.67
2017-09-11T06:18:50.188Z,1019.63
2017-09-11T06:19:50.828Z,1019.66
2017-09-11T06:20:51.461Z,1019.65
2017-09-11T06:21:52.097Z,1019.67
2017-09-11T06:22:52.732Z,1019.62
2017-09-11T06:23:53.566Z,1019.61
2017-09-11T06:24:54.202Z,1019.68
2017-09-11T06:25:54.841Z,1019.63
2017-09-11T06:26:55.475Z,1019.66
2017-09-11T06:27:56.112Z,1019.63
2017-09-11T06:28:56.748Z,1019.64
2017-09-11T06:29:57.387Z,1019.64
2017-09-11T06:30:58.021Z,1019.63
2017-09-11T06:31:58.959Z,1019.65
2017-09-11T06:32:59.592Z,1019.67
2017-09-11T06:34:00.227Z,1019.67
2017-09-11T06:35:00.864Z,1019.68
2017-09-11T06:36:01.501Z,1019.76
2017-09-11T06:37:02.135Z,1019.68
2017-09-11T06:38:02.772Z,1019.67
2017-09-11T06:39:03.407Z,1019.66
2017-09-11T06:40:04.247Z,1019.70
2017-09-11T06:41:04.882Z,1019.69
2017-09-11T06:42:05.515Z,1019.67
2017-09-11T06:43:06.152Z,1019.74
2017-09-11T06:44:06.786Z,1019.68
2017-09-11T06:45:07.423Z,1019.69
2017-09-11T06:46:08.058Z,1019.64
2017-09-11T06:47:08.698Z,1019.67
2017-09-11T06:48:09.534Z,1019.74
2017-09-11T06:49:10.167Z,1019.73
2017-09-11T06:50:10.806Z,1019.72
2017-09-11T06:51:11.443Z,1019.77
2017-09-11T06:52:12.080Z,1019.80
2017-09-11T06:53:12.713Z,1019.74
2017-09-11T06:54:13.350Z,1019.78
2017-09-11T06:55:13.939Z,1019.72
2017-09-11T06:56:14.572Z,1019.79
2017-09-11T06:57:15.362Z,1019.85
2017-09-11T06:58:15.998Z,1019.78
2017-09-11T06:59:16.633Z,1019.81
2017-09-11T07:00:17.270Z,1019.81
2017-09-11T07:01:17.905Z,1019.81
2017-09-11T07:02:18.544Z,1019.85
2017-09-11T07:03:19.181Z,1019.82
2017-09-11T07:04:19.816Z,1019.81
2017-09-11T07:05:20.652Z,1019.82
2017-09-11T07:06:21.291Z,1019.75
2017-09-11T07:07:21.928Z,1019.76
2017-09-11T07:08:22.564Z,1019.82
2017-09-11T07:09:23.249Z,1019.76
2017-09-11T07:10:23.884Z,1019.82
2017-09-11T07:11:24.519Z,1019.79
2017-09-11T07:12:25.157Z,1019.81
2017-09-11T07:13:25.941Z,1019.76
2017-09-11T07:14:26.586Z,1019.76
2017-09-11T07:15:27.214Z,1019.79
2017-09-11T07:16:27.856Z,1019.79
2017-09-11T07:17:28.489Z,1019.82
2017-09-11T07:18:29.127Z,1019.81
2017-09-11T07:19:29.760Z,1019.81
2017-09-11T07:20:30.397Z,1019.86
2017-09-11T07:21:31.431Z,1019.79
2017-09-11T07:22:32.066Z,1019.81
2017-09-11T07:23:32.704Z,1019.86
2017-09-11T07:24:33.341Z,1019.81
2017-09-11T07:25:33.980Z,1019.83
2017-09-11T07:26:34.610Z,1019.81
2017-09-11T07:27:35.247Z,1019.76
2017-09-11T07:28:35.883Z,1019.88
2017-09-11T07:29:36.518Z,1019.82
2017-09-11T07:30:37.353Z,1019.78
2017-09-11T07:31:37.988Z,1019.81
2017-09-11T07:32:38.627Z,1019.85
2017-09-11T07:33:39.263Z,1019.83
2017-09-11T07:34:39.898Z,1019.88
2017-09-11T07:35:40.533Z,1019.79
2017-09-11T07:36:41.169Z,1019.95
2017-09-11T07:37:41.804Z,1019.91
2017-09-11T07:38:42.591Z,1019.79
2017-09-11T07:39:43.227Z,1019.86
2017-09-11T07:40:43.864Z,1019.88
2017-09-11T07:41:44.500Z,1019.89
2017-09-11T07:42:45.134Z,1019.89
2017-09-11T07:43:45.769Z,1019.86
2017-09-11T07:44:46.409Z,1019.93
2017-09-11T07:45:47.045Z,1019.80
2017-09-11T07:46:47.881Z,1019.83
2017-09-11T07:47:48.521Z,1019.83
2017-09-11T07:48:49.161Z,1019.91
2017-09-11T07:49:49.842Z,1019.85
2017-09-11T07:50:50.480Z,1019.86
2017-09-11T07:51:51.117Z,1019.85
2017-09-11T07:52:51.755Z,1019.82
2017-09-11T07:53:52.389Z,1019.87
2017-09-11T07:54:53.175Z,1019.89
2017-09-11T07:55:53.810Z,1019.89
2017-09-11T07:56:54.444Z,1019.87
2017-09-11T07:57:55.081Z,1019.81
2017-09-11T07:58:55.721Z,1019.91
2017-09-11T07:59:56.354Z,1019.87
2017-09-11T08:00:56.989Z,1019.89
2017-09-11T08:01:57.631Z,1019.84
2017-09-11T08:02:58.417Z,1019.85
2017-09-11T08:03:59.052Z,1019.94
2017-09-11T08:04:59.688Z,1019.94
2017-09-11T08:06:00.325Z,1019.94
2017-09-11T08:07:00.963Z,1019.91
2017-09-11T08:08:01.601Z,1019.93
2017-09-11T08:09:02.234Z,1019.99
2017-09-11T08:10:02.878Z,1019.99
2017-09-11T08:11:03.506Z,1020.01
2017-09-11T08:12:04.343Z,1019.98
2017-09-11T08:13:04.980Z,1020.05
2017-09-11T08:14:05.619Z,1020.04
2017-09-11T08:15:06.253Z,1020.11
2017-09-11T08:16:06.889Z,1020.01
2017-09-11T08:17:07.526Z,1020.08
2017-09-11T08:18:08.160Z,1020.06
2017-09-11T08:19:08.797Z,1020.04
2017-09-11T08:20:09.636Z,1020.04
2017-09-11T08:21:10.271Z,1020.04
2017-09-11T08:22:10.906Z,1020.11
2017-09-11T08:23:11.541Z,1020.12
2017-09-11T08:24:12.175Z,1020.17
2017-09-11T08:25:12.809Z,1020.19
2017-09-11T08:26:13.446Z,1020.15
2017-09-11T08:27:14.086Z,1020.14
2017-09-11T08:28:15.069Z,1020.13
2017-09-11T08:29:15.704Z,1020.15
2017-09-11T08:30:16.341Z,1020.25
2017-09-11T08:31:16.978Z,1020.22
2017-09-11T08:32:17.618Z,1020.18
2017-09-11T08:33:18.251Z,1020.27
2017-09-11T08:34:18.889Z,1020.21
2017-09-11T08:35:19.526Z,1020.24
2017-09-11T08:36:20.460Z,1020.22
2017-09-11T08:37:21.099Z,1020.25
2017-09-11T08:38:21.735Z,1020.32
2017-09-11T08:39:22.373Z,1020.28
2017-09-11T08:40:23.011Z,1020.31
2017-09-11T08:41:23.653Z,1020.35
2017-09-11T08:42:24.343Z,1020.37
2017-09-11T08:43:24.977Z,1020.30
2017-09-11T08:44:25.613Z,1020.36
2017-09-11T08:45:26.452Z,1020.29
2017-09-11T08:46:27.084Z,1020.34
2017-09-11T08:47:27.719Z,1020.41
2017-09-11T08:48:28.355Z,1020.43
2017-09-11T08:49:28.995Z,1020.37
2017-09-11T08:50:29.630Z,1020.39
2017-09-11T08:51:30.317Z,1020.34
2017-09-11T08:52:30.952Z,1020.46
2017-09-11T08:53:31.788Z,1020.37
2017-09-11T08:54:32.377Z,1020.44
2017-09-11T08:55:33.017Z,1020.47
2017-09-11T08:56:33.647Z,1020.42
2017-09-11T08:57:34.283Z,1020.52
2017-09-11T08:58:34.918Z,1020.52
2017-09-11T08:59:35.556Z,1020.54
2017-09-11T09:00:36.192Z,1020.52
2017-09-11T09:01:37.026Z,1020.53
2017-09-11T09:02:37.662Z,1020.67
2017-09-11T09:03:38.300Z,1020.69
2017-09-11T09:04:38.935Z,1020.61
2017-09-11T09:05:39.574Z,1020.65
2017-09-11T09:06:40.210Z,1020.55
2017-09-11T09:07:40.848Z,1020.61
2017-09-11T09:08:41.494Z,1020.58
2017-09-11T09:09:42.337Z,1020.62
2017-09-11T09:10:42.969Z,1020.62
2017-09-11T09:11:43.608Z,1020.65
2017-09-11T09:12:44.249Z,1020.70
2017-09-11T09:13:44.881Z,1020.68
2017-09-11T09:14:45.516Z,1020.65
2017-09-11T09:15:46.155Z,1020.65
2017-09-11T09:16:46.791Z,1020.70
2017-09-11T09:17:47.628Z,1020.73
2017-09-11T09:18:48.267Z,1020.79
2017-09-11T09:19:48.906Z,1020.68
2017-09-11T09:20:49.542Z,1020.70
2017-09-11T09:21:50.179Z,1020.70
2017-09-11T09:22:50.817Z,1020.70
2017-09-11T09:23:51.455Z,1020.64
2017-09-11T09:24:52.094Z,1020.63
2017-09-11T09:25:52.731Z,1020.57
2017-09-11T09:26:53.565Z,1020.63
2017-09-11T09:27:54.204Z,1020.64
2017-09-11T09:28:54.841Z,1020.52
2017-09-11T09:29:55.479Z,1020.55
2017-09-11T09:30:56.125Z,1020.63
2017-09-11T09:31:56.765Z,1020.63
2017-09-11T09:32:57.411Z,1020.69
2017-09-11T09:33:58.049Z,1020.69
2017-09-11T09:34:58.843Z,1020.67
2017-09-11T09:35:59.490Z,1020.68
2017-09-11T09:37:00.131Z,1020.61
2017-09-11T09:38:00.773Z,1020.66
2017-09-11T09:39:01.414Z,1020.71
2017-09-11T09:40:02.054Z,1020.68
2017-09-11T09:41:02.696Z,1020.68
2017-09-11T09:42:03.336Z,1020.73
2017-09-11T09:43:04.180Z,1020.67
2017-09-11T09:44:04.819Z,1020.69
2017-09-11T09:45:05.462Z,1020.73
2017-09-11T09:46:06.106Z,1020.65
2017-09-11T09:47:06.748Z,1020.78
2017-09-11T09:48:07.391Z,1020.78
2017-09-11T09:49:08.034Z,1020.77
2017-09-11T09:50:08.676Z,1020.81
2017-09-11T09:51:09.522Z,1020.73
2017-09-11T09:52:10.165Z,1020.82
2017-09-11T09:53:10.811Z,1020.85
2017-09-11T09:54:11.450Z,1020.80
2017-09-11T09:55:12.090Z,1020.91
2017-09-11T09:56:12.736Z,1020.84
2017-09-11T09:57:13.377Z,1020.87
2017-09-11T09:58:14.020Z,1020.85
2017-09-11T09:59:14.662Z,1020.88
2017-09-11T10:00:15.456Z,1020.86
2017-09-11T10:01:16.099Z,1020.84
2017-09-11T10:02:16.741Z,1020.86
2017-09-11T10:03:17.383Z,1020.81
2017-09-11T10:04:18.025Z,1020.81
2017-09-11T10:05:18.666Z,1020.73
2017-09-11T10:06:19.318Z,1020.70
2017-09-11T10:07:19.950Z,1020.77
2017-09-11T10:08:20.892Z,1020.80
2017-09-11T10:09:21.538Z,1020.78
2017-09-11T10:10:22.182Z,1020.76
2017-09-11T10:11:22.826Z,1020.87
2017-09-11T10:12:23.467Z,1020.80
2017-09-11T10:13:24.109Z,1020.83
2017-09-11T10:14:24.753Z,1020.75
2017-09-11T10:15:25.394Z,1020.81
2017-09-11T10:16:26.188Z,1020.83
2017-09-11T10:17:26.830Z,1020.84
2017-09-11T10:18:27.473Z,1020.81
2017-09-11T10:19:28.114Z,1020.81
2017-09-11T10:20:28.760Z,1020.84
2017-09-11T10:21:29.405Z,1020.85
2017-09-11T10:22:30.048Z,1020.85
2017-09-11T10:23:30.691Z,1020.91
2017-09-11T10:24:31.538Z,1020.87
2017-09-11T10:25:32.175Z,1020.85
2017-09-11T10:26:32.818Z,1020.90
2017-09-11T10:27:33.465Z,1020.91
2017-09-11T10:28:34.111Z,1020.92
2017-09-11T10:29:34.811Z,1020.86
2017-09-11T10:30:35.452Z,1020.82
2017-09-11T10:31:36.094Z,1020.84
2017-09-11T10:32:36.885Z,1020.88
2017-09-11T10:33:37.531Z,1020.80
2017-09-11T10:34:38.174Z,1020.83
2017-09-11T10:35:38.820Z,1020.88
2017-09-11T10:36:39.461Z,1020.87
2017-09-11T10:37:40.107Z,1020.89
2017-09-11T10:38:40.750Z,1020.94
2017-09-11T10:39:41.392Z,1020.94
2017-09-11T10:40:42.037Z,1020.90
2017-09-11T10:41:42.981Z,1020.91
2017-09-11T10:42:43.576Z,1020.93
2017-09-11T10:43:44.220Z,1020.91
2017-09-11T10:44:45.066Z,1020.90
2017-09-11T10:45:45.770Z,1020.95
2017-09-11T10:46:46.410Z,1020.88
2017-09-11T10:47:47.050Z,1020.91
2017-09-11T10:48:47.697Z,1020.86
2017-09-11T10:49:48.349Z,1020.93
2017-09-11T10:50:48.996Z,1020.87
2017-09-11T10:51:49.641Z,1020.98
2017-09-11T10:52:53.328Z,1020.91
2017-09-11T10:53:54.170Z,1020.93
2017-09-11T10:54:54.817Z,1020.94
2017-09-11T10:55:55.463Z,1020.91
2017-09-11T10:56:56.110Z,1021.00
2017-09-11T10:57:56.705Z,1021.01
2017-09-11T10:58:57.351Z,1021.00
2017-09-11T10:59:57.999Z,1020.91
2017-09-11T11:00:58.644Z,1020.89
2017-09-11T11:01:59.495Z,1020.87
2017-09-11T11:03:00.139Z,1020.94
2017-09-11T11:04:00.785Z,1020.97
2017-09-11T11:05:01.432Z,1020.96
2017-09-11T11:06:02.078Z,1020.98
2017-09-11T11:07:02.725Z,1020.98
2017-09-11T11:08:03.372Z,1020.94
2017-09-11T11:09:04.022Z,1020.95
2017-09-11T11:10:04.867Z,1021.02
2017-09-11T11:11:05.511Z,1020.98
2017-09-11T11:12:06.203Z,1020.94
2017-09-11T11:13:06.802Z,1020.97
2017-09-11T11:14:07.445Z,1021.04
2017-09-11T11:15:08.093Z,1021.02
2017-09-11T11:16:08.742Z,1021.00
2017-09-11T11:17:09.388Z,1020.96
2017-09-11T11:18:10.237Z,1020.97
2017-09-11T11:19:10.884Z,1020.94
2017-09-11T11:20:11.528Z,1020.93
2017-09-11T11:21:12.173Z,1020.97
2017-09-11T11:22:12.820Z,1020.96
2017-09-11T11:23:13.467Z,1020.88
2017-09-11T11:24:14.116Z,1020.98
2017-09-11T11:25:14.761Z,1020.93
2017-09-11T11:26:15.604Z,1020.91
2017-09-11T11:27:16.249Z,1020.91
2017-09-11T11:28:16.896Z,1020.92
2017-09-11T11:29:17.545Z,1020.89
2017-09-11T11:30:18.195Z,1020.88
2017-09-11T11:31:18.844Z,1020.87
2017-09-11T11:32:19.489Z,1020.88
2017-09-11T11:33:20.133Z,1020.82
2017-09-11T11:34:20.778Z,1020.91
2017-09-11T11:35:21.776Z,1020.81
2017-09-11T11:36:22.471Z,1020.82
2017-09-11T11:37:23.117Z,1020.89
2017-09-11T11:38:23.765Z,1020.82
2017-09-11T11:39:24.411Z,1020.83
2017-09-11T11:40:25.059Z,1020.79
2017-09-11T11:41:25.702Z,1020.85
2017-09-11T11:42:26.349Z,1020.81
2017-09-11T11:43:27.249Z,1020.78
2017-09-11T11:44:27.894Z,1020.85
2017-09-11T11:45:28.539Z,1020.83
2017-09-11T11:46:29.184Z,1020.83
2017-09-11T11:47:29.834Z,1020.90
2017-09-11T11:48:30.481Z,1020.86
2017-09-11T11:49:31.125Z,1020.92
2017-09-11T11:50:31.775Z,1020.91
2017-09-11T11:51:32.583Z,1020.88
2017-09-11T11:52:33.223Z,1020.81
2017-09-11T11:53:33.870Z,1020.89
2017-09-11T11:54:34.517Z,1020.83
2017-09-11T11:55:35.165Z,1020.82
2017-09-11T11:56:35.814Z,1020.82
2017-09-11T11:57:36.465Z,1020.84
2017-09-11T11:58:37.114Z,1020.86
2017-09-11T11:59:37.966Z,1020.79
2017-09-11T12:00:38.611Z,1020.85
2017-09-11T12:01:39.260Z,1020.89
2017-09-11T12:02:39.907Z,1020.86
2017-09-11T12:03:40.562Z,1020.86
2017-09-11T12:04:41.206Z,1020.83
2017-09-11T12:05:41.859Z,1020.87
2017-09-11T12:06:42.509Z,1020.86
2017-09-11T12:07:43.159Z,1020.79
2017-09-11T12:08:44.057Z,1020.92
2017-09-11T12:09:44.708Z,1020.83
2017-09-11T12:10:45.353Z,1020.78
2017-09-11T12:11:46.005Z,1020.87
2017-09-11T12:12:46.654Z,1020.95
2017-09-11T12:13:47.304Z,1020.81